Time;durP1;ratioP1;P1;durP2;ratioP2;P2;SDS_P1;SDS_P2;PMS_P1;PMS_P2;Temp;Humidity;BMP_temperature;BMP_pressure;BME280_temperature;BME280_humidity;BME280_pressure;Samples;Min_cycle;Max_cycle;Signal;HPM_P1;HPM_P2
2022/11/25 00:00:12;;;;;;;14.88;6.28;;;;;;;;;;5099649;28;20054;-88
2022/11/25 00:02:43;;;;;;;13.93;6.50;;;;;;;;;;5099808;28;20051;-89
2022/11/25 00:05:11;;;;;;;17.00;7.22;;;;;;;;;;5099830;28;20049;-89
2022/11/25 00:07:38;;;;;;;9.30;6.38;;;;;;;;;;5099960;28;20051;-89
2022/11/25 00:10:05;;;;;;;10.43;6.22;;;;;;;;;;5099786;28;20063;-89
2022/11/25 00:12:33;;;;;;;33.00;7.45;;;;;;;;;;5110332;28;20050;-90
2022/11/25 00:15:00;;;;;;;48.78;10.30;;;;;;;;;;5109392;28;20047;-90
2022/11/25 00:17:29;;;;;;;17.58;7.00;;;;;;;;;;5100022;28;20052;-89
2022/11/25 00:20:00;;;;;;;27.73;8.40;;;;;;;;;;5099701;28;20041;-89
2022/11/25 00:22:27;;;;;;;10.23;6.32;;;;;;;;;;5099859;28;20067;-89
2022/11/25 00:24:54;;;;;;;18.88;6.82;;;;;;;;;;5099269;28;20051;-89
2022/11/25 00:27:21;;;;;;;15.15;7.50;;;;;;;;;;5099560;28;20051;-89
2022/11/25 00:29:49;;;;;;;17.48;7.57;;;;;;;;;;5099113;28;20051;-89
2022/11/25 00:32:16;;;;;;;12.65;6.38;;;;;;;;;;5099567;28;20055;-89
2022/11/25 00:34:43;;;;;;;29.05;8.98;;;;;;;;;;5099472;28;20044;-89
2022/11/25 00:37:10;;;;;;;13.15;7.03;;;;;;;;;;5099330;28;20058;-89
2022/11/25 00:39:37;;;;;;;11.07;6.72;;;;;;;;;;5099080;28;20060;-89
2022/11/25 00:44:50;;;;;;;11.63;6.32;;;;;;;;;;5116797;28;20051;-89
2022/11/25 00:47:19;;;;;;;8.80;5.32;;;;;;;;;;5099252;28;20054;-89
2022/11/25 00:49:47;;;;;;;20.13;6.32;;;;;;;;;;5098323;28;20062;-89
2022/11/25 00:52:16;;;;;;;9.18;5.68;;;;;;;;;;5098313;27;20048;-89
2022/11/25 00:54:46;;;;;;;10.27;5.90;;;;;;;;;;5098243;28;20047;-89
2022/11/25 00:57:14;;;;;;;10.55;5.78;;;;;;;;;;5098857;28;20074;-89
2022/11/25 00:59:41;;;;;;;11.07;5.90;;;;;;;;;;5098763;28;20404;-89
2022/11/25 01:02:10;;;;;;;7.78;5.55;;;;;;;;;;5098758;28;20062;-89
2022/11/25 01:04:37;;;;;;;10.77;5.90;;;;;;;;;;5100403;28;20047;-89
2022/11/25 01:07:05;;;;;;;12.85;6.35;;;;;;;;;;5098464;28;20044;-90
2022/11/25 01:09:32;;;;;;;14.13;5.57;;;;;;;;;;5098135;28;20047;-90
2022/11/25 01:11:59;;;;;;;13.68;5.82;;;;;;;;;;5098571;28;20048;-89
2022/11/25 01:14:27;;;;;;;6.97;5.80;;;;;;;;;;5098649;28;20047;-89
2022/11/25 01:16:54;;;;;;;11.80;6.28;;;;;;;;;;5098282;28;20050;-89
2022/11/25 01:19:21;;;;;;;9.50;5.55;;;;;;;;;;5098382;28;20047;-89
2022/11/25 01:21:48;;;;;;;9.35;5.70;;;;;;;;;;5099086;28;20055;-90
2022/11/25 01:24:16;;;;;;;12.18;6.32;;;;;;;;;;5098128;28;20058;-89
2022/11/25 01:26:44;;;;;;;13.98;7.13;;;;;;;;;;5106501;28;20034;-90
2022/11/25 01:29:16;;;;;;;12.55;7.07;;;;;;;;;;5112221;28;20051;-90
2022/11/25 01:31:43;;;;;;;17.55;6.95;;;;;;;;;;5099642;28;20047;-90
2022/11/25 01:34:21;;;;;;;13.60;7.07;;;;;;;;;;5098243;28;20596;-90
2022/11/25 01:36:49;;;;;;;11.90;5.78;;;;;;;;;;5098280;28;20044;-89
2022/11/25 01:39:18;;;;;;;15.52;7.55;;;;;;;;;;5098534;28;20066;-89
2022/11/25 01:41:45;;;;;;;19.50;7.32;;;;;;;;;;5098488;28;20052;-89
2022/11/25 01:44:20;;;;;;;33.97;8.75;;;;;;;;;;5098749;28;20055;-89
2022/11/25 01:47:11;;;;;;;16.42;7.07;;;;;;;;;;5098804;28;20060;-90
2022/11/25 01:49:43;;;;;;;12.30;6.38;;;;;;;;;;5103313;28;20070;-89
2022/11/25 01:52:10;;;;;;;19.38;7.35;;;;;;;;;;5097859;28;20488;-89
2022/11/25 01:54:40;;;;;;;12.90;6.28;;;;;;;;;;5097824;28;20051;-90
2022/11/25 01:57:13;;;;;;;28.38;7.43;;;;;;;;;;5097694;28;20048;-89
2022/11/25 01:59:43;;;;;;;21.23;8.13;;;;;;;;;;5097577;28;20055;-89
2022/11/25 02:02:11;;;;;;;28.80;8.10;;;;;;;;;;5097764;28;20146;-90
2022/11/25 02:04:39;;;;;;;14.27;8.02;;;;;;;;;;5097322;28;20051;-90
2022/11/25 02:07:09;;;;;;;22.15;8.57;;;;;;;;;;5097409;28;20057;-89
2022/11/25 02:09:38;;;;;;;19.63;8.75;;;;;;;;;;5097110;28;20052;-89
2022/11/25 02:12:07;;;;;;;37.90;10.68;;;;;;;;;;5097591;28;20541;-89
2022/11/25 02:14:35;;;;;;;55.33;10.90;;;;;;;;;;5099024;28;20048;-90
2022/11/25 02:17:02;;;;;;;41.47;9.88;;;;;;;;;;5098157;28;20058;-90
2022/11/25 02:19:48;;;;;;;28.60;9.48;;;;;;;;;;5097165;28;20056;-90
2022/11/25 02:22:21;;;;;;;17.85;9.20;;;;;;;;;;5097277;28;20066;-89
2022/11/25 02:24:50;;;;;;;19.73;9.05;;;;;;;;;;5096897;28;20039;-90
2022/11/25 02:27:17;;;;;;;90.32;13.40;;;;;;;;;;5097061;28;20055;-89
2022/11/25 02:29:46;;;;;;;29.23;9.00;;;;;;;;;;5096799;28;20120;-90
2022/11/25 02:32:13;;;;;;;15.57;8.13;;;;;;;;;;5096711;28;20048;-90
2022/11/25 02:34:50;;;;;;;22.25;8.55;;;;;;;;;;5096985;28;20051;-89
2022/11/25 02:37:18;;;;;;;15.30;7.82;;;;;;;;;;5096978;28;20055;-89
2022/11/25 02:39:47;;;;;;;26.63;8.05;;;;;;;;;;5097862;28;20418;-89
2022/11/25 02:42:15;;;;;;;18.00;8.45;;;;;;;;;;5115446;28;20038;-90
2022/11/25 02:44:42;;;;;;;15.15;7.50;;;;;;;;;;5099158;28;20058;-90
2022/11/25 02:47:09;;;;;;;41.67;8.90;;;;;;;;;;5096726;28;20047;-89
2022/11/25 02:49:36;;;;;;;37.67;9.55;;;;;;;;;;5096448;28;20051;-90
2022/11/25 02:52:04;;;;;;;35.95;9.55;;;;;;;;;;5096638;28;20044;-90
2022/11/25 02:54:31;;;;;;;67.57;11.27;;;;;;;;;;5096684;28;20047;-90
2022/11/25 02:56:58;;;;;;;17.30;8.50;;;;;;;;;;5097411;28;20051;-90
2022/11/25 02:59:25;;;;;;;34.40;8.27;;;;;;;;;;5097681;28;20058;-90
2022/11/25 03:01:52;;;;;;;113.18;11.95;;;;;;;;;;5096161;28;20404;-90
2022/11/25 03:04:20;;;;;;;80.15;11.05;;;;;;;;;;5096440;28;20499;-90
2022/11/25 03:06:47;;;;;;;89.75;11.40;;;;;;;;;;5096416;28;20142;-88
2022/11/25 03:09:14;;;;;;;46.75;9.77;;;;;;;;;;5096041;28;20048;-90
2022/11/25 03:14:27;;;;;;;22.52;9.02;;;;;;;;;;5114154;28;20059;-90
2022/11/25 03:16:54;;;;;;;86.63;12.38;;;;;;;;;;5095614;28;20051;-90
2022/11/25 03:19:21;;;;;;;92.88;12.45;;;;;;;;;;5096495;28;20073;-90
2022/11/25 03:21:49;;;;;;;16.70;8.13;;;;;;;;;;5096209;28;20079;-90
2022/11/25 03:24:16;;;;;;;69.90;10.68;;;;;;;;;;5096075;28;20126;-89
2022/11/25 03:26:43;;;;;;;86.88;12.32;;;;;;;;;;5096149;28;20488;-89
2022/11/25 03:29:10;;;;;;;19.98;7.97;;;;;;;;;;5096089;28;20052;-90
2022/11/25 03:31:37;;;;;;;58.97;9.70;;;;;;;;;;5096266;28;20488;-89
2022/11/25 03:34:05;;;;;;;78.45;9.82;;;;;;;;;;5096174;28;20051;-90
2022/11/25 03:36:32;;;;;;;29.10;7.97;;;;;;;;;;5096057;28;20047;-90
2022/11/25 03:38:59;;;;;;;21.83;8.10;;;;;;;;;;5096126;28;20043;-89
2022/11/25 03:41:26;;;;;;;23.38;8.32;;;;;;;;;;5096156;28;20079;-90
2022/11/25 03:43:54;;;;;;;30.00;7.80;;;;;;;;;;5096095;28;20484;-90
2022/11/25 03:46:21;;;;;;;17.52;6.65;;;;;;;;;;5095948;28;20051;-89
2022/11/25 03:48:48;;;;;;;14.85;7.10;;;;;;;;;;5095831;28;20482;-89
2022/11/25 03:51:15;;;;;;;11.73;7.13;;;;;;;;;;5095829;28;20051;-89
2022/11/25 03:53:43;;;;;;;16.60;8.02;;;;;;;;;;5096529;28;20488;-89
2022/11/25 03:56:10;;;;;;;32.85;9.10;;;;;;;;;;5111237;28;20050;-90
2022/11/25 03:58:37;;;;;;;32.58;12.70;;;;;;;;;;5099299;28;20073;-90
2022/11/25 04:01:04;;;;;;;41.70;21.70;;;;;;;;;;5094740;28;20052;-89
2022/11/25 04:03:31;;;;;;;40.67;19.00;;;;;;;;;;5095932;28;20039;-89
2022/11/25 04:05:58;;;;;;;24.42;13.00;;;;;;;;;;5095458;28;20134;-89
2022/11/25 04:08:26;;;;;;;27.02;13.88;;;;;;;;;;5095758;28;20061;-89
2022/11/25 04:10:53;;;;;;;32.15;16.67;;;;;;;;;;5095456;28;20052;-90
2022/11/25 04:13:20;;;;;;;22.52;11.70;;;;;;;;;;5096017;28;20054;-90
2022/11/25 04:15:49;;;;;;;18.13;10.05;;;;;;;;;;5096184;28;20051;-90
2022/11/25 04:18:16;;;;;;;18.70;9.40;;;;;;;;;;5097204;28;20059;-90
2022/11/25 04:20:44;;;;;;;15.23;8.10;;;;;;;;;;5096761;28;20051;-90
2022/11/25 04:23:12;;;;;;;75.03;9.57;;;;;;;;;;5096057;28;20491;-89
2022/11/25 04:25:39;;;;;;;19.13;9.43;;;;;;;;;;5095576;28;20052;-89
2022/11/25 04:28:07;;;;;;;19.25;8.68;;;;;;;;;;5098325;28;20043;-89
2022/11/25 04:30:34;;;;;;;36.65;15.43;;;;;;;;;;5099131;28;20112;-89
2022/11/25 04:33:01;;;;;;;37.75;8.32;;;;;;;;;;5099398;28;20112;-89
2022/11/25 04:35:29;;;;;;;19.90;6.90;;;;;;;;;;5099415;28;20055;-89
2022/11/25 04:37:56;;;;;;;35.65;8.57;;;;;;;;;;5099452;28;20062;-90
2022/11/25 04:40:23;;;;;;;24.95;8.35;;;;;;;;;;5099381;28;20047;-90
2022/11/25 04:42:50;;;;;;;9.80;5.72;;;;;;;;;;5098886;28;20418;-89
2022/11/25 04:45:25;;;;;;;15.52;6.68;;;;;;;;;;5100355;28;20467;-89
2022/11/25 04:47:52;;;;;;;13.70;7.03;;;;;;;;;;5098965;28;20510;-90
2022/11/25 04:50:22;;;;;;;22.40;8.38;;;;;;;;;;5098828;28;20108;-90
2022/11/25 04:52:49;;;;;;;23.02;8.23;;;;;;;;;;5098987;28;20048;-90
2022/11/25 04:55:16;;;;;;;36.60;9.85;;;;;;;;;;5098883;28;20065;-90
2022/11/25 04:57:43;;;;;;;10.52;7.05;;;;;;;;;;5098640;28;20048;-90
2022/11/25 05:00:11;;;;;;;33.15;8.90;;;;;;;;;;5098816;28;20051;-90
2022/11/25 05:02:38;;;;;;;86.50;12.23;;;;;;;;;;5098472;28;20047;-90
2022/11/25 05:05:06;;;;;;;70.90;11.18;;;;;;;;;;5098435;28;20047;-90
2022/11/25 05:07:33;;;;;;;111.38;11.88;;;;;;;;;;5098861;28;20047;-90
2022/11/25 05:10:00;;;;;;;40.90;9.98;;;;;;;;;;5109576;28;20036;-90
2022/11/25 05:12:28;;;;;;;34.33;9.10;;;;;;;;;;5108049;28;20499;-89
2022/11/25 05:14:56;;;;;;;40.90;9.52;;;;;;;;;;5098280;28;20051;-90
2022/11/25 05:17:25;;;;;;;10.50;6.10;;;;;;;;;;5098477;28;20044;-89
2022/11/25 05:19:52;;;;;;;11.80;7.20;;;;;;;;;;5098241;28;20050;-90
2022/11/25 05:22:21;;;;;;;21.20;8.15;;;;;;;;;;5098407;28;20039;-90
2022/11/25 05:24:48;;;;;;;28.15;9.57;;;;;;;;;;5098173;28;20047;-89
2022/11/25 05:27:16;;;;;;;25.20;10.00;;;;;;;;;;5098451;28;20415;-90
2022/11/25 05:29:44;;;;;;;17.17;8.35;;;;;;;;;;5098106;28;20130;-90
2022/11/25 05:32:11;;;;;;;14.77;7.68;;;;;;;;;;5098207;28;20488;-90
2022/11/25 05:34:39;;;;;;;16.13;7.28;;;;;;;;;;5098070;28;20051;-90
2022/11/25 05:37:06;;;;;;;23.80;9.77;;;;;;;;;;5098087;28;20492;-89
2022/11/25 05:39:33;;;;;;;18.75;8.55;;;;;;;;;;5097584;28;20054;-90
2022/11/25 05:42:04;;;;;;;22.60;11.18;;;;;;;;;;5098386;28;20480;-90
2022/11/25 05:44:31;;;;;;;28.55;11.77;;;;;;;;;;5097874;28;20468;-90
2022/11/25 05:46:58;;;;;;;15.77;10.35;;;;;;;;;;5098043;28;20062;-90
2022/11/25 05:49:25;;;;;;;16.73;11.10;;;;;;;;;;5097941;28;20047;-90
2022/11/25 05:51:52;;;;;;;24.63;11.75;;;;;;;;;;5097823;28;20054;-90
2022/11/25 05:54:19;;;;;;;17.98;13.52;;;;;;;;;;5097767;28;20051;-90
2022/11/25 05:56:47;;;;;;;25.38;16.48;;;;;;;;;;5097909;28;20070;-90
2022/11/25 05:59:14;;;;;;;32.20;17.98;;;;;;;;;;5097612;28;20393;-90
2022/11/25 06:01:41;;;;;;;23.23;13.93;;;;;;;;;;5097580;28;20047;-90
2022/11/25 06:04:09;;;;;;;21.48;11.65;;;;;;;;;;5098981;28;20081;-90
2022/11/25 06:06:36;;;;;;;14.75;9.27;;;;;;;;;;5100017;28;20073;-90
2022/11/25 06:09:03;;;;;;;15.50;9.15;;;;;;;;;;5097642;28;20083;-91
2022/11/25 06:11:31;;;;;;;14.80;9.55;;;;;;;;;;5097882;28;20051;-91
2022/11/25 06:13:58;;;;;;;15.13;8.95;;;;;;;;;;5115432;28;20047;-90
2022/11/25 06:16:25;;;;;;;17.70;9.85;;;;;;;;;;5097428;28;20051;-91
2022/11/25 06:18:52;;;;;;;17.27;9.38;;;;;;;;;;5097566;28;20403;-90
2022/11/25 06:21:20;;;;;;;16.15;9.32;;;;;;;;;;5097451;28;20047;-91
2022/11/25 06:23:47;;;;;;;12.25;8.40;;;;;;;;;;5104206;28;20225;-91
2022/11/25 06:26:19;;;;;;;15.70;7.53;;;;;;;;;;5110856;28;20046;-91
2022/11/25 06:28:47;;;;;;;12.93;7.57;;;;;;;;;;5097279;28;20043;-91
2022/11/25 06:31:16;;;;;;;15.27;6.32;;;;;;;;;;5096836;28;20048;-90
2022/11/25 06:33:46;;;;;;;12.02;6.15;;;;;;;;;;5097160;28;20058;-91
2022/11/25 06:36:16;;;;;;;14.02;6.95;;;;;;;;;;5114572;28;20487;-91
2022/11/25 06:38:47;;;;;;;11.85;6.75;;;;;;;;;;5097016;28;20062;-91
2022/11/25 06:41:14;;;;;;;14.18;5.70;;;;;;;;;;5096787;28;20052;-91
2022/11/25 06:43:42;;;;;;;7.47;5.47;;;;;;;;;;5096904;28;20055;-91
2022/11/25 06:46:14;;;;;;;9.00;5.03;;;;;;;;;;5096391;28;20056;-90
2022/11/25 06:48:49;;;;;;;10.13;7.15;;;;;;;;;;5097640;28;20043;-91
2022/11/25 06:51:16;;;;;;;39.88;24.35;;;;;;;;;;5095687;28;20040;-91
2022/11/25 06:53:44;;;;;;;69.18;37.92;;;;;;;;;;5096520;28;20051;-91
2022/11/25 06:56:16;;;;;;;40.25;24.20;;;;;;;;;;5096678;28;20047;-91
2022/11/25 06:58:43;;;;;;;44.45;28.40;;;;;;;;;;5096714;28;20047;-91
2022/11/25 07:01:14;;;;;;;27.77;14.13;;;;;;;;;;5096697;28;20059;-91
2022/11/25 07:03:42;;;;;;;15.90;9.68;;;;;;;;;;5097001;28;20380;-92
2022/11/25 07:06:09;;;;;;;10.43;8.10;;;;;;;;;;5096451;28;20052;-91
2022/11/25 07:08:37;;;;;;;21.17;11.80;;;;;;;;;;5096643;28;20048;-91
2022/11/25 07:11:10;;;;;;;22.23;10.63;;;;;;;;;;5096128;28;20407;-91
2022/11/25 07:13:37;;;;;;;16.67;8.38;;;;;;;;;;5096505;28;20062;-91
2022/11/25 07:16:05;;;;;;;10.05;7.43;;;;;;;;;;5096390;28;20055;-91
2022/11/25 07:18:33;;;;;;;15.32;7.80;;;;;;;;;;5096782;28;20062;-91
2022/11/25 07:21:05;;;;;;;13.93;7.32;;;;;;;;;;5097086;28;20071;-91
2022/11/25 07:23:33;;;;;;;12.80;6.90;;;;;;;;;;5096330;28;20051;-92
2022/11/25 07:26:06;;;;;;;14.85;7.78;;;;;;;;;;5096481;28;20040;-90
2022/11/25 07:28:33;;;;;;;14.20;7.05;;;;;;;;;;5096318;28;20052;-90
2022/11/25 07:31:08;;;;;;;15.05;7.47;;;;;;;;;;5095903;28;20058;-91
2022/11/25 07:33:54;;;;;;;16.00;8.73;;;;;;;;;;5098156;28;20051;-90
2022/11/25 07:36:22;;;;;;;17.77;7.90;;;;;;;;;;5096966;28;20063;-91
2022/11/25 07:38:49;;;;;;;14.57;7.70;;;;;;;;;;5110082;28;20036;-91
2022/11/25 07:41:18;;;;;;;16.65;8.50;;;;;;;;;;5098364;28;20484;-91
2022/11/25 07:43:46;;;;;;;16.70;8.30;;;;;;;;;;5096274;28;20052;-91
2022/11/25 07:46:13;;;;;;;16.15;7.75;;;;;;;;;;5095844;28;20048;-91
2022/11/25 07:48:42;;;;;;;16.42;9.05;;;;;;;;;;5096317;28;20082;-90
2022/11/25 07:51:24;;;;;;;14.23;8.48;;;;;;;;;;5095495;28;20484;-91
2022/11/25 07:53:52;;;;;;;18.08;8.60;;;;;;;;;;5095983;28;20047;-91
2022/11/25 07:56:20;;;;;;;18.17;8.82;;;;;;;;;;5096645;28;20055;-90
2022/11/25 07:58:47;;;;;;;16.42;9.25;;;;;;;;;;5096047;28;20040;-92
2022/11/25 08:01:16;;;;;;;24.95;11.35;;;;;;;;;;5096081;28;20051;-92
2022/11/25 08:03:44;;;;;;;32.60;13.73;;;;;;;;;;5099433;28;20059;-91
2022/11/25 08:06:13;;;;;;;21.63;12.80;;;;;;;;;;5099723;28;20060;-90
2022/11/25 08:08:41;;;;;;;32.92;18.13;;;;;;;;;;5100057;28;20443;-91
2022/11/25 08:11:12;;;;;;;35.38;22.48;;;;;;;;;;5099392;28;20058;-91
2022/11/25 08:13:40;;;;;;;39.83;25.85;;;;;;;;;;5099660;28;20050;-91
2022/11/25 08:16:08;;;;;;;46.35;26.10;;;;;;;;;;5099682;28;20058;-91
2022/11/25 08:18:35;;;;;;;33.05;17.83;;;;;;;;;;5100031;28;20047;-91
2022/11/25 08:21:04;;;;;;;26.30;16.05;;;;;;;;;;5099569;28;20047;-91
2022/11/25 08:23:31;;;;;;;25.70;14.13;;;;;;;;;;5099723;28;20154;-91
2022/11/25 08:26:06;;;;;;;17.20;10.27;;;;;;;;;;5099490;28;20506;-91
2022/11/25 08:28:34;;;;;;;17.65;11.27;;;;;;;;;;5099582;28;20056;-92
2022/11/25 08:31:06;;;;;;;22.63;11.48;;;;;;;;;;5098924;28;20055;-91
2022/11/25 08:33:33;;;;;;;24.63;12.13;;;;;;;;;;5099665;28;20047;-91
2022/11/25 08:36:00;;;;;;;22.13;12.68;;;;;;;;;;5099569;28;20406;-91
2022/11/25 08:38:28;;;;;;;30.80;15.25;;;;;;;;;;5099518;28;20154;-91
2022/11/25 08:40:56;;;;;;;25.50;15.32;;;;;;;;;;5099380;28;20047;-91
2022/11/25 08:43:23;;;;;;;28.17;15.93;;;;;;;;;;5099762;28;20039;-91
2022/11/25 08:45:56;;;;;;;20.73;13.50;;;;;;;;;;5100428;28;20143;-91
2022/11/25 08:48:23;;;;;;;23.58;12.35;;;;;;;;;;5099628;28;20130;-91
2022/11/25 08:50:53;;;;;;;25.15;12.88;;;;;;;;;;5100607;28;20063;-91
2022/11/25 08:53:21;;;;;;;25.75;12.50;;;;;;;;;;5115085;28;20043;-91
2022/11/25 08:55:48;;;;;;;24.45;13.23;;;;;;;;;;5100631;28;20407;-90
2022/11/25 08:58:16;;;;;;;25.50;15.18;;;;;;;;;;5099316;28;20517;-90
2022/11/25 09:00:44;;;;;;;23.88;11.52;;;;;;;;;;5098824;28;20051;-91
2022/11/25 09:03:11;;;;;;;31.17;16.27;;;;;;;;;;5098530;28;20062;-91
2022/11/25 09:05:40;;;;;;;33.92;15.55;;;;;;;;;;5098967;28;20077;-91
2022/11/25 09:08:08;;;;;;;29.55;14.27;;;;;;;;;;5098984;28;20073;-90
2022/11/25 09:10:36;;;;;;;41.72;15.32;;;;;;;;;;5098770;28;20472;-91
2022/11/25 09:13:04;;;;;;;65.15;34.05;;;;;;;;;;5098902;28;20071;-91
2022/11/25 09:15:31;;;;;;;40.78;19.63;;;;;;;;;;5098744;28;20046;-91
2022/11/25 09:18:03;;;;;;;31.55;15.63;;;;;;;;;;5098307;28;20514;-90
2022/11/25 09:20:31;;;;;;;40.53;21.02;;;;;;;;;;5098180;28;20056;-90
2022/11/25 09:22:59;;;;;;;428.77;64.82;;;;;;;;;;5098214;28;20047;-90
2022/11/25 09:25:26;;;;;;;31.98;20.00;;;;;;;;;;5098497;28;20065;-90
2022/11/25 09:27:54;;;;;;;46.47;23.30;;;;;;;;;;5097957;28;20057;-90
2022/11/25 09:30:22;;;;;;;593.60;75.28;;;;;;;;;;5098146;28;20044;-89
2022/11/25 09:32:50;;;;;;;149.32;44.67;;;;;;;;;;5098218;28;20054;-90
2022/11/25 09:35:18;;;;;;;82.00;22.55;;;;;;;;;;5097983;28;20082;-89
2022/11/25 09:37:45;;;;;;;22.92;11.85;;;;;;;;;;5097950;28;20059;-90
2022/11/25 09:40:20;;;;;;;20.40;11.40;;;;;;;;;;5097737;28;20050;-88
2022/11/25 09:48:59;;;;;;;15.23;12.07;;;;;;;;;;5095403;28;20044;-88
2022/11/25 09:51:33;;;;;;;16.48;11.45;;;;;;;;;;5097661;28;20051;-90
2022/11/25 09:54:08;;;;;;;14.50;9.10;;;;;;;;;;5097790;28;20048;-87
2022/11/25 09:56:56;;;;;;;16.40;10.20;;;;;;;;;;5097323;28;20143;-90
2022/11/25 09:59:29;;;;;;;13.48;8.90;;;;;;;;;;5097579;28;20051;-90
2022/11/25 10:02:00;;;;;;;15.80;7.55;;;;;;;;;;5097497;28;20054;-89
2022/11/25 10:04:40;;;;;;;11.30;6.40;;;;;;;;;;5098315;28;20047;-90
2022/11/25 10:07:10;;;;;;;10.23;6.07;;;;;;;;;;5111158;28;20066;-90
2022/11/25 10:09:37;;;;;;;9.02;4.82;;;;;;;;;;5104200;28;20478;-89
2022/11/25 10:12:10;;;;;;;9.73;5.22;;;;;;;;;;5115239;28;20083;-89
2022/11/25 10:14:48;;;;;;;7.97;4.20;;;;;;;;;;5097035;28;20399;-89
2022/11/25 10:17:34;;;;;;;11.85;5.75;;;;;;;;;;5114393;28;20134;-88
2022/11/25 10:20:04;;;;;;;7.45;4.22;;;;;;;;;;5114949;28;20056;-87
2022/11/25 10:22:39;;;;;;;5.80;4.07;;;;;;;;;;5097243;28;20127;-88
2022/11/25 10:25:12;;;;;;;6.30;3.75;;;;;;;;;;5096528;28;20054;-88
2022/11/25 10:27:46;;;;;;;6.10;3.58;;;;;;;;;;5096903;28;20224;-88
2022/11/25 10:30:19;;;;;;;8.80;3.58;;;;;;;;;;5097067;28;20079;-88
2022/11/25 10:32:54;;;;;;;4.28;3.00;;;;;;;;;;5096728;28;20491;-88
2022/11/25 10:35:33;;;;;;;5.47;3.45;;;;;;;;;;5114567;28;20043;-87
2022/11/25 10:38:01;;;;;;;5.40;3.42;;;;;;;;;;5096248;28;20055;-88
2022/11/25 10:40:29;;;;;;;6.43;3.97;;;;;;;;;;5096330;28;20545;-87
2022/11/25 10:42:56;;;;;;;5.45;3.90;;;;;;;;;;5096334;28;20086;-86
2022/11/25 10:45:29;;;;;;;10.00;4.22;;;;;;;;;;5095542;28;20510;-87
2022/11/25 10:47:56;;;;;;;8.40;4.20;;;;;;;;;;5096159;28;20039;-87
2022/11/25 10:50:47;;;;;;;6.05;4.15;;;;;;;;;;5095878;28;20525;-85
2022/11/25 10:53:21;;;;;;;9.23;4.63;;;;;;;;;;5094491;28;20514;-86
2022/11/25 10:55:59;;;;;;;7.28;3.88;;;;;;;;;;5096151;28;20051;-88
2022/11/25 10:58:31;;;;;;;6.68;4.35;;;;;;;;;;5114051;28;20053;-86
2022/11/25 11:01:20;;;;;;;8.00;4.80;;;;;;;;;;5095893;28;20050;-87
2022/11/25 11:03:52;;;;;;;6.82;3.78;;;;;;;;;;5114213;28;20074;-88
2022/11/25 11:06:30;;;;;;;7.50;4.05;;;;;;;;;;5095988;28;20058;-86
2022/11/25 11:08:58;;;;;;;5.22;3.72;;;;;;;;;;5095930;28;20049;-87
2022/11/25 11:11:25;;;;;;;4.07;3.58;;;;;;;;;;5096134;28;20067;-87
2022/11/25 11:14:11;;;;;;;7.35;3.78;;;;;;;;;;5096104;28;20435;-87
2022/11/25 11:16:40;;;;;;;6.07;3.20;;;;;;;;;;5096074;28;20048;-87
2022/11/25 11:19:20;;;;;;;6.97;3.20;;;;;;;;;;5097473;28;20480;-87
2022/11/25 11:21:48;;;;;;;5.05;3.10;;;;;;;;;;5131724;28;20055;-88
2022/11/25 11:24:26;;;;;;;6.60;3.03;;;;;;;;;;5097138;28;20126;-87
2022/11/25 11:27:09;;;;;;;3.05;2.45;;;;;;;;;;5095811;28;20060;-89
2022/11/25 11:29:36;;;;;;;3.90;2.40;;;;;;;;;;5095452;28;20055;-87
2022/11/25 11:32:07;;;;;;;6.70;2.63;;;;;;;;;;5095565;28;20052;-87
2022/11/25 11:34:42;;;;;;;3.72;2.42;;;;;;;;;;5113535;28;20476;-87
2022/11/25 11:37:28;;;;;;;4.68;2.60;;;;;;;;;;5114578;28;20048;-86
2022/11/25 11:39:58;;;;;;;5.15;2.88;;;;;;;;;;5099268;28;20048;-87
2022/11/25 11:42:40;;;;;;;6.55;2.97;;;;;;;;;;5100031;28;20048;-87
2022/11/25 11:45:13;;;;;;;3.75;2.85;;;;;;;;;;5099762;28;20146;-87
2022/11/25 11:47:40;;;;;;;4.13;3.30;;;;;;;;;;5099168;28;20488;-87
2022/11/25 11:50:29;;;;;;;7.03;3.38;;;;;;;;;;5099828;28;20048;-87
2022/11/25 11:53:10;;;;;;;6.65;2.83;;;;;;;;;;5099563;28;20047;-87
2022/11/25 11:55:55;;;;;;;5.97;3.42;;;;;;;;;;5099599;28;20498;-87
2022/11/25 11:58:56;;;;;;;7.85;3.15;;;;;;;;;;5102743;28;20055;-87
2022/11/25 12:01:26;;;;;;;5.75;2.88;;;;;;;;;;5117530;28;20456;-87
2022/11/25 12:04:14;;;;;;;5.78;3.00;;;;;;;;;;5117126;28;20047;-87
2022/11/25 12:06:42;;;;;;;8.52;4.75;;;;;;;;;;5099464;28;20077;-87
2022/11/25 12:09:13;;;;;;;5.55;3.22;;;;;;;;;;5099264;28;20054;-87
2022/11/25 12:11:43;;;;;;;3.22;2.80;;;;;;;;;;5099606;28;20082;-87
2022/11/25 12:14:19;;;;;;;3.50;2.30;;;;;;;;;;5099546;28;20050;-87
2022/11/25 12:16:50;;;;;;;4.22;2.72;;;;;;;;;;5100044;28;20048;-87
2022/11/25 12:19:23;;;;;;;5.10;2.40;;;;;;;;;;5099372;28;20078;-87
2022/11/25 12:21:50;;;;;;;7.83;3.57;;;;;;;;;;5117934;28;20469;-87
2022/11/25 12:24:24;;;;;;;8.18;4.38;;;;;;;;;;5099273;28;20050;-87
2022/11/25 12:26:58;;;;;;;6.70;3.97;;;;;;;;;;5098693;28;20131;-86
2022/11/25 12:29:25;;;;;;;;;;;;;;;;;;5099769;28;20043;-87
2022/11/25 12:31:58;;;;;;;6.85;4.88;;;;;;;;;;5115771;28;19927;-86
2022/11/25 12:34:36;;;;;;;36.42;17.42;;;;;;;;;;5102037;28;20044;-87
2022/11/25 12:37:09;;;;;;;43.20;20.80;;;;;;;;;;5110818;28;20154;-86
2022/11/25 12:39:48;;;;;;;24.83;14.30;;;;;;;;;;5098872;28;20503;-87
2022/11/25 12:42:17;;;;;;;14.43;9.77;;;;;;;;;;5098578;28;20047;-86
2022/11/25 12:45:04;;;;;;;62.15;40.28;;;;;;;;;;5098350;28;20126;-87
2022/11/25 12:47:31;;;;;;;36.53;25.02;;;;;;;;;;5098957;28;20044;-87
2022/11/25 12:49:59;;;;;;;22.75;14.27;;;;;;;;;;5097119;28;20055;-87
2022/11/25 12:52:26;;;;;;;8.93;6.57;;;;;;;;;;5098207;28;20050;-87
2022/11/25 12:55:10;;;;;;;6.57;5.07;;;;;;;;;;5098464;28;20083;-87
2022/11/25 12:57:53;;;;;;;24.88;12.23;;;;;;;;;;5098395;28;20043;-87
2022/11/25 13:00:25;;;;;;;10.10;5.80;;;;;;;;;;5116554;28;20130;-87
2022/11/25 13:03:08;;;;;;;19.10;9.75;;;;;;;;;;5117976;28;20058;-87
2022/11/25 13:05:54;;;;;;;20.38;11.80;;;;;;;;;;5101933;28;20310;-87
2022/11/25 13:08:21;;;;;;;64.47;32.42;;;;;;;;;;5101285;28;20048;-87
2022/11/25 13:11:07;;;;;;;75.80;48.90;;;;;;;;;;5098203;28;20491;-87
2022/11/25 13:13:48;;;;;;;18.80;13.00;;;;;;;;;;5098710;28;20105;-87
2022/11/25 13:16:17;;;;;;;15.25;8.45;;;;;;;;;;5098459;28;20047;-87
2022/11/25 13:18:46;;;;;;;6.93;4.80;;;;;;;;;;5098386;28;20483;-87
2022/11/25 13:21:14;;;;;;;9.43;5.57;;;;;;;;;;5115798;28;20043;-88
2022/11/25 13:23:57;;;;;;;13.10;10.13;;;;;;;;;;5097740;28;20054;-87
2022/11/25 13:26:28;;;;;;;6.68;4.68;;;;;;;;;;5098145;28;20058;-88
2022/11/25 13:28:56;;;;;;;49.42;28.67;;;;;;;;;;5098698;28;20047;-87
2022/11/25 13:31:24;;;;;;;10.77;4.85;;;;;;;;;;5101684;28;20043;-87
2022/11/25 13:33:51;;;;;;;16.27;8.38;;;;;;;;;;5108531;28;20052;-87
2022/11/25 13:36:23;;;;;;;10.23;3.05;;;;;;;;;;5102150;28;20047;-89
2022/11/25 13:38:50;;;;;;;3.83;2.15;;;;;;;;;;5098274;28;20047;-87
2022/11/25 13:41:21;;;;;;;5.88;2.92;;;;;;;;;;5098503;28;20058;-87
2022/11/25 13:43:55;;;;;;;5.80;2.72;;;;;;;;;;5097899;28;20055;-88
2022/11/25 13:46:33;;;;;;;5.07;2.20;;;;;;;;;;5098833;28;20047;-87
2022/11/25 13:49:01;;;;;;;5.53;2.70;;;;;;;;;;5098007;28;20058;-88
2022/11/25 13:51:28;;;;;;;5.57;2.53;;;;;;;;;;5115549;28;20538;-87
2022/11/25 13:54:05;;;;;;;8.45;2.20;;;;;;;;;;5097869;28;20051;-87
2022/11/25 13:56:36;;;;;;;9.80;2.60;;;;;;;;;;5097384;28;20044;-87
2022/11/25 13:59:10;;;;;;;3.17;1.95;;;;;;;;;;5115192;28;20044;-87
2022/11/25 14:01:38;;;;;;;8.30;3.47;;;;;;;;;;5097259;28;20052;-88
2022/11/25 14:04:09;;;;;;;6.72;4.22;;;;;;;;;;5119701;28;20051;-87
2022/11/25 14:06:37;;;;;;;7.72;3.10;;;;;;;;;;5115325;28;20059;-88
2022/11/25 14:09:10;;;;;;;8.15;3.28;;;;;;;;;;5097183;28;20044;-87
2022/11/25 14:11:48;;;;;;;7.65;2.30;;;;;;;;;;5114915;28;20055;-87
2022/11/25 14:14:44;;;;;;;6.47;2.95;;;;;;;;;;5097051;28;20044;-87
2022/11/25 14:17:35;;;;;;;8.93;4.25;;;;;;;;;;5083084;28;20566;-88
2022/11/25 14:20:20;;;;;;;9.13;4.72;;;;;;;;;;5115272;28;20483;-87
2022/11/25 14:22:57;;;;;;;5.97;3.15;;;;;;;;;;5076549;28;20044;-87
2022/11/25 14:25:28;;;;;;;8.70;3.80;;;;;;;;;;5077005;28;20416;-88
2022/11/25 14:27:59;;;;;;;6.50;4.13;;;;;;;;;;5077093;28;20480;-87
2022/11/25 14:30:31;;;;;;;5.30;3.55;;;;;;;;;;5077677;28;20135;-86
2022/11/25 14:33:01;;;;;;;5.07;2.83;;;;;;;;;;5094576;28;20059;-88
2022/11/25 14:35:36;;;;;;;7.35;2.63;;;;;;;;;;5076695;28;20040;-87
2022/11/25 14:38:17;;;;;;;3.92;2.80;;;;;;;;;;5078034;28;20052;-87
2022/11/25 14:40:44;;;;;;;;;;;;;;;;;;5077280;28;20048;-87
2022/11/25 14:43:19;;;;;;;7.18;3.78;;;;;;;;;;5077604;28;19920;-87
2022/11/25 14:45:46;;;;;;;5.15;3.35;;;;;;;;;;5076783;28;20071;-87
2022/11/25 14:48:14;;;;;;;5.18;3.38;;;;;;;;;;5087530;28;20090;-87
2022/11/25 14:50:53;;;;;;;4.03;2.90;;;;;;;;;;5099314;28;20051;-87
2022/11/25 14:53:21;;;;;;;7.60;4.07;;;;;;;;;;5076921;28;20055;-87
2022/11/25 14:55:48;;;;;;;6.53;3.47;;;;;;;;;;5077441;28;20519;-87
2022/11/25 14:58:15;;;;;;;7.28;3.70;;;;;;;;;;5076334;28;20058;-87
2022/11/25 15:00:58;;;;;;;5.00;2.80;;;;;;;;;;5094045;28;20052;-88